Time;durP1;ratioP1;P1;durP2;ratioP2;P2;SDS_P1;SDS_P2;PMS_P1;PMS_P2;Temp;Humidity;BMP_temperature;BMP_pressure;BME280_temperature;BME280_humidity;BME280_pressure;Samples;Min_cycle;Max_cycle;Signal;HPM_P1;HPM_P2
2021/01/29 00:00:23;;;;;;;4.78;4.00;;;;;;;-0.33;48.54;100212.50;5025665;28;20089;-71
2021/01/29 00:02:53;;;;;;;6.63;3.40;;;;;;;-0.27;48.22;100209.06;5021403;28;20029;-72
2021/01/29 00:05:24;;;;;;;9.07;3.78;;;;;;;-0.59;49.00;100220.34;5005716;28;20040;-71
2021/01/29 00:07:49;;;;;;;8.95;2.75;;;;;;;-0.43;48.68;100210.88;5027109;28;20044;-71
2021/01/29 00:10:16;;;;;;;7.80;3.13;;;;;;;-0.29;47.72;100211.63;5028055;28;20042;-71
2021/01/29 00:12:42;;;;;;;6.22;2.65;;;;;;;-0.72;49.24;100209.28;5014375;28;20116;-71
2021/01/29 00:15:10;;;;;;;8.93;2.80;;;;;;;-0.44;48.56;100196.31;5030798;28;20087;-71
2021/01/29 00:17:35;;;;;;;8.85;3.35;;;;;;;-0.54;48.74;100192.94;5025470;28;20037;-72
2021/01/29 00:20:05;;;;;;;5.88;2.83;;;;;;;-0.52;48.66;100190.38;5023591;28;20049;-71
2021/01/29 00:22:30;;;;;;;4.97;2.50;;;;;;;-0.87;49.63;100194.78;5024980;28;20036;-72
2021/01/29 00:24:56;;;;;;;4.18;2.70;;;;;;;-0.48;48.79;100189.47;5023921;28;20096;-71
2021/01/29 00:27:21;;;;;;;4.80;2.78;;;;;;;-0.53;48.74;100186.09;5024225;28;20471;-71
2021/01/29 00:29:47;;;;;;;5.38;2.78;;;;;;;-0.56;48.84;100182.69;5030983;28;20033;-72
2021/01/29 00:32:12;;;;;;;5.28;2.85;;;;;;;-0.51;48.96;100180.09;5031018;28;20456;-71
2021/01/29 00:34:38;;;;;;;7.18;2.83;;;;;;;-0.66;49.08;100160.50;5031226;28;20049;-71
2021/01/29 00:37:03;;;;;;;7.55;2.40;;;;;;;-0.62;49.07;100157.03;5024738;28;20037;-71
2021/01/29 00:39:29;;;;;;;8.93;2.63;;;;;;;-0.58;48.93;100147.59;5021993;28;20140;-72
2021/01/29 00:41:54;;;;;;;6.15;2.90;;;;;;;-0.80;49.40;100141.72;5034798;28;20109;-71
2021/01/29 00:44:20;;;;;;;6.03;1.73;;;;;;;-0.40;48.61;100138.94;5027951;28;20064;-71
2021/01/29 00:46:45;;;;;;;4.68;1.88;;;;;;;-0.75;49.11;100140.00;5028036;28;20060;-72
2021/01/29 00:49:11;;;;;;;3.10;1.65;;;;;;;-0.64;48.92;100133.13;5029205;28;20030;-72
2021/01/29 00:51:36;;;;;;;4.78;2.08;;;;;;;-0.84;49.40;100127.22;5023789;28;20034;-72
2021/01/29 00:54:03;;;;;;;4.57;1.58;;;;;;;-0.81;49.71;100124.66;5035045;28;20479;-71
2021/01/29 00:56:34;;;;;;;4.97;2.20;;;;;;;-0.84;49.87;100124.66;5027164;28;20022;-72
2021/01/29 00:59:05;;;;;;;5.65;1.67;;;;;;;-0.50;48.85;100115.06;5030863;28;20034;-71
2021/01/29 01:01:53;;;;;;;7.90;1.95;;;;;;;-0.58;48.91;100117.66;5037587;28;20045;-71
2021/01/29 01:04:19;;;;;;;9.32;2.28;;;;;;;-0.64;49.18;100120.28;5026763;28;20485;-71
2021/01/29 01:06:45;;;;;;;7.20;2.15;;;;;;;-0.58;49.13;100112.53;5029814;28;20038;-72
2021/01/29 01:09:29;;;;;;;1.90;1.33;;;;;;;-0.58;48.67;100109.97;5024398;28;20240;-72
2021/01/29 01:11:54;;;;;;;3.53;1.77;;;;;;;-0.79;49.44;100107.53;5029155;28;20033;-72
2021/01/29 01:14:39;;;;;;;3.90;1.77;;;;;;;-0.74;49.13;100095.53;5025987;28;20841;-71
2021/01/29 01:17:22;;;;;;;3.80;1.45;;;;;;;-1.01;50.00;100093.94;5022755;28;20045;-72
2021/01/29 01:20:17;;;;;;;3.67;1.60;;;;;;;-0.72;49.22;100101.50;5020859;28;20042;-72
2021/01/29 01:22:43;;;;;;;5.85;1.63;;;;;;;-1.11;50.02;100085.41;5016565;28;20043;-72
2021/01/29 01:25:37;;;;;;;4.38;1.50;;;;;;;-1.05;50.02;100077.72;5010595;28;20046;-71
2021/01/29 01:28:13;;;;;;;2.33;1.60;;;;;;;-1.19;50.66;100079.47;5010692;28;20053;-71
2021/01/29 01:30:45;;;;;;;7.07;0.97;;;;;;;-0.81;49.58;100086.16;5029344;28;20033;-72
2021/01/29 01:33:16;;;;;;;5.30;2.13;;;;;;;-1.20;50.61;100075.19;5024525;28;20051;-71
2021/01/29 01:35:53;;;;;;;3.63;2.13;;;;;;;-1.12;50.37;100080.28;5030414;28;20036;-71
2021/01/29 01:38:26;;;;;;;1.75;1.20;;;;;;;-1.39;50.80;100064.16;5007609;28;20026;-72
2021/01/29 01:40:53;;;;;;;3.10;1.23;;;;;;;-0.92;49.29;100069.97;5028618;28;20191;-72
2021/01/29 01:43:26;;;;;;;9.20;1.70;;;;;;;-0.86;49.26;100052.84;5011558;28;20022;-71
2021/01/29 01:46:14;;;;;;;3.65;1.00;;;;;;;-1.11;50.08;100046.94;5000130;28;20056;-72
2021/01/29 01:49:12;;;;;;;4.97;0.95;;;;;;;-0.92;49.50;100039.19;5013621;28;20052;-71
2021/01/29 01:52:27;;;;;;;3.83;1.15;;;;;;;-1.02;49.72;100023.84;5010114;28;20037;-71
2021/01/29 01:55:25;;;;;;;4.68;1.42;;;;;;;-1.18;49.88;100011.94;5019552;28;20046;-71
2021/01/29 01:58:11;;;;;;;3.80;1.23;;;;;;;-1.02;49.81;100007.59;5013244;28;20033;-71
2021/01/29 02:00:53;;;;;;;2.50;1.30;;;;;;;-0.90;49.39;100006.69;5020837;28;20087;-71
2021/01/29 02:03:29;;;;;;;2.47;0.95;;;;;;;-1.11;49.70;99998.19;5030368;28;20080;-72
2021/01/29 02:05:56;;;;;;;4.15;1.75;;;;;;;-1.37;50.15;99995.78;5027316;28;20951;-71
2021/01/29 02:08:45;;;;;;;9.68;1.48;;;;;;;-0.97;49.26;99986.19;5032313;28;20033;-70
2021/01/29 02:11:19;;;;;;;2.63;1.17;;;;;;;-1.26;50.02;99980.38;5023701;28;20033;-73
2021/01/29 02:14:02;;;;;;;3.35;1.45;;;;;;;-1.17;49.86;99970.06;5027765;28;20032;-71
2021/01/29 02:17:04;;;;;;;8.48;1.85;;;;;;;-0.98;49.37;99953.69;5032208;28;20038;-71
2021/01/29 02:20:22;;;;;;;2.40;1.40;;;;;;;-1.14;49.75;99946.09;5025862;28;20051;-72
2021/01/29 02:23:06;;;;;;;3.80;2.00;;;;;;;-1.17;49.61;99937.56;5014429;28;20025;-71
2021/01/29 02:26:27;;;;;;;2.25;1.05;;;;;;;-0.91;49.30;99922.88;4986903;28;20039;-72
2021/01/29 02:29:13;;;;;;;2.47;1.20;;;;;;;-0.88;49.03;99917.72;5025038;28;20029;-71
2021/01/29 02:32:13;;;;;;;5.30;1.50;;;;;;;-0.71;48.60;99908.16;5019741;28;20087;-71
2021/01/29 02:35:04;;;;;;;4.15;1.52;;;;;;;-0.81;48.63;99902.25;5015400;28;20037;-72
2021/01/29 02:37:50;;;;;;;3.25;1.70;;;;;;;-0.94;49.01;99882.72;5025469;28;20025;-71
2021/01/29 02:40:41;;;;;;;4.13;1.80;;;;;;;-1.09;49.38;99873.38;5027287;28;20539;-71
2021/01/29 02:43:28;;;;;;;3.22;1.42;;;;;;;-0.70;48.71;99868.81;5025787;28;20061;-72
2021/01/29 02:46:54;;;;;;;3.17;1.33;;;;;;;-0.92;49.15;99870.72;5008372;28;20052;-72
2021/01/29 02:50:02;;;;;;;8.73;2.22;;;;;;;-0.63;48.41;99862.75;4992956;28;20040;-71
2021/01/29 02:53:14;;;;;;;3.00;1.60;;;;;;;-0.61;48.45;99855.88;5022709;28;20044;-72
2021/01/29 02:56:25;;;;;;;6.40;1.40;;;;;;;-1.15;49.77;99858.06;5021266;28;20052;-71
2021/01/29 02:59:51;;;;;;;5.00;2.00;;;;;;;-0.76;48.71;99844.03;5020389;28;20034;-72
2021/01/29 03:03:10;;;;;;;7.13;1.63;;;;;;;-0.93;49.48;99825.41;5013111;28;20066;-72
2021/01/29 03:06:09;;;;;;;6.30;1.55;;;;;;;-0.63;48.89;99821.69;5021555;28;20033;-71
2021/01/29 03:08:58;;;;;;;;;;;;;;;-0.69;48.98;99797.81;5000480;28;20061;-71
2021/01/29 03:11:58;;;;;;;6.88;2.00;;;;;;;-0.98;49.87;99797.22;5025226;28;19920;-71
2021/01/29 03:14:53;;;;;;;6.65;1.70;;;;;;;-1.19;50.38;99790.56;5042499;28;20091;-71
2021/01/29 03:17:48;;;;;;;8.15;1.90;;;;;;;-1.25;50.57;99792.31;5023367;28;20052;-71
2021/01/29 03:20:54;;;;;;;8.65;2.00;;;;;;;-0.65;49.24;99794.34;5027902;28;20048;-71
2021/01/29 03:23:43;;;;;;;5.00;1.77;;;;;;;-1.21;50.60;99791.44;5028219;28;20055;-71
2021/01/29 03:26:34;;;;;;;3.92;1.23;;;;;;;-1.38;51.10;99789.84;5027151;28;20461;-71
2021/01/29 03:29:22;;;;;;;4.63;1.27;;;;;;;-1.38;51.22;99784.72;5028754;28;20099;-71
2021/01/29 03:32:09;;;;;;;3.15;1.58;;;;;;;-0.86;50.00;99782.56;5022274;28;20103;-71
2021/01/29 03:35:02;;;;;;;6.72;2.38;;;;;;;-1.19;50.67;99774.31;5024047;28;20071;-72
2021/01/29 03:38:03;;;;;;;6.57;1.73;;;;;;;-0.84;50.07;99771.44;5024708;28;20049;-72
2021/01/29 03:40:56;;;;;;;3.50;1.42;;;;;;;-1.23;51.13;99764.97;5025144;28;20052;-71
2021/01/29 03:43:52;;;;;;;7.50;1.95;;;;;;;-1.34;51.34;99762.50;5026607;28;20454;-71
2021/01/29 03:46:54;;;;;;;7.72;1.77;;;;;;;-1.16;50.84;99753.78;5025670;28;20052;-72
2021/01/29 03:49:54;;;;;;;2.65;0.98;;;;;;;-1.38;51.45;99742.88;5021540;28;20045;-71
2021/01/29 03:52:57;;;;;;;3.03;1.60;;;;;;;-1.51;51.65;99725.91;5037947;28;20048;-72
2021/01/29 03:56:07;;;;;;;6.18;1.48;;;;;;;-1.12;50.92;99719.56;5005503;28;20041;-72
2021/01/29 03:59:37;;;;;;;7.40;1.38;;;;;;;-1.34;51.83;99718.06;4992386;28;20780;-72
2021/01/29 04:02:42;;;;;;;1.98;1.25;;;;;;;-1.33;51.81;99704.38;5011508;28;20100;-72
2021/01/29 04:05:32;;;;;;;4.60;1.13;;;;;;;-1.03;51.30;99693.00;5025103;28;20052;-71
2021/01/29 04:08:55;;;;;;;4.63;1.40;;;;;;;-1.46;52.35;99684.00;5024809;28;20045;-71
2021/01/29 04:11:50;;;;;;;6.65;1.33;;;;;;;-1.34;52.29;99677.91;4970388;28;20081;-71
2021/01/29 04:15:00;;;;;;;2.78;1.42;;;;;;;-1.22;51.92;99669.22;5015231;28;20534;-72
2021/01/29 04:17:46;;;;;;;5.18;2.00;;;;;;;-1.39;52.98;99660.00;5028441;28;20296;-71
2021/01/29 04:20:38;;;;;;;6.15;2.13;;;;;;;-1.17;52.11;99652.94;5019151;28;20038;-71
2021/01/29 04:23:13;;;;;;;6.68;2.67;;;;;;;-1.37;53.01;99642.06;5011744;28;20080;-72
2021/01/29 04:25:44;;;;;;;5.88;1.65;;;;;;;-1.66;53.75;99632.09;5021987;28;20060;-71
2021/01/29 04:28:15;;;;;;;4.78;2.33;;;;;;;-1.46;53.41;99619.94;5021555;28;20080;-72
2021/01/29 04:30:46;;;;;;;5.38;2.80;;;;;;;-1.63;53.55;99626.94;5027468;28;20046;-72
2021/01/29 04:33:17;;;;;;;4.60;2.22;;;;;;;-1.66;53.63;99614.16;5042914;28;20057;-72
2021/01/29 04:35:42;;;;;;;7.07;2.47;;;;;;;-1.52;53.24;99612.28;5028177;28;20524;-71
2021/01/29 04:38:20;;;;;;;4.32;2.17;;;;;;;-1.71;53.85;99610.78;5040364;28;20112;-71
2021/01/29 04:41:07;;;;;;;6.00;2.08;;;;;;;-1.60;53.29;99608.94;5023826;28;20034;-71
2021/01/29 04:44:11;;;;;;;5.97;3.30;;;;;;;-1.23;52.98;99598.31;5009999;28;20033;-71
2021/01/29 04:46:55;;;;;;;7.65;1.17;;;;;;;-1.82;54.32;99593.81;5030758;28;20033;-71
2021/01/29 04:49:30;;;;;;;6.55;3.03;;;;;;;-1.84;54.79;99585.28;5028496;28;20083;-71
2021/01/29 04:52:26;;;;;;;3.30;1.83;;;;;;;-1.94;54.58;99573.41;5025168;28;20066;-71
2021/01/29 04:55:29;;;;;;;2.95;2.03;;;;;;;-1.74;54.49;99580.06;5015015;28;20071;-71
2021/01/29 04:58:10;;;;;;;3.85;2.13;;;;;;;-1.38;53.76;99564.28;5043341;28;20832;-71
2021/01/29 05:01:35;;;;;;;6.72;2.60;;;;;;;-1.94;55.28;99573.41;5013709;28;20037;-71
2021/01/29 05:04:48;;;;;;;4.85;2.10;;;;;;;-1.72;54.62;99562.97;4994876;28;20356;-71
2021/01/29 05:07:51;;;;;;;5.30;2.35;;;;;;;-1.44;54.11;99556.69;4998881;28;20556;-71
2021/01/29 05:10:50;;;;;;;3.92;2.17;;;;;;;-1.46;54.05;99537.91;5024432;28;20061;-72
2021/01/29 05:13:56;;;;;;;7.15;2.75;;;;;;;-1.64;54.74;99526.16;5024401;28;20049;-72
2021/01/29 05:17:09;;;;;;;4.97;2.67;;;;;;;-1.74;55.14;99523.72;5032907;28;20092;-72
2021/01/29 05:20:09;;;;;;;4.32;2.03;;;;;;;-1.65;55.05;99519.31;4972973;28;20099;-71
2021/01/29 05:22:50;;;;;;;9.52;2.28;;;;;;;-1.88;55.86;99516.19;5026876;28;20125;-72
2021/01/29 05:25:16;;;;;;;4.30;2.05;;;;;;;-1.68;55.20;99509.13;5025549;28;20040;-71
2021/01/29 05:27:41;;;;;;;5.00;2.65;;;;;;;-1.83;55.68;99517.81;5010280;28;20042;-72
2021/01/29 05:30:32;;;;;;;7.68;2.15;;;;;;;-1.57;55.36;99511.56;5013132;28;20384;-72
2021/01/29 05:33:19;;;;;;;5.88;3.83;;;;;;;-1.65;55.72;99506.50;5025508;28;20081;-72
2021/01/29 05:36:13;;;;;;;4.53;2.72;;;;;;;-2.03;56.42;99509.50;5024107;28;20522;-73
2021/01/29 05:38:42;;;;;;;7.35;3.42;;;;;;;-1.59;55.41;99492.78;5023483;28;20029;-71
2021/01/29 05:41:26;;;;;;;4.65;2.25;;;;;;;-1.61;55.84;99491.97;5026089;28;20097;-71
2021/01/29 05:44:13;;;;;;;5.15;3.38;;;;;;;-1.94;56.58;99483.78;5023160;28;20030;-72
2021/01/29 05:47:16;;;;;;;12.27;4.20;;;;;;;-1.83;56.65;99474.28;5023460;28;20041;-72
2021/01/29 05:50:01;;;;;;;5.65;2.60;;;;;;;-2.00;57.15;99471.03;5024921;28;20483;-72
2021/01/29 05:52:38;;;;;;;5.55;3.10;;;;;;;-2.21;57.99;99467.84;5025429;28;20479;-72
2021/01/29 05:55:08;;;;;;;11.30;3.33;;;;;;;-2.37;58.37;99457.78;5025072;28;20034;-72
2021/01/29 05:57:58;;;;;;;5.50;3.22;;;;;;;-2.34;57.99;99461.16;5027949;28;20033;-72
2021/01/29 06:00:56;;;;;;;6.82;3.40;;;;;;;-2.08;57.62;99452.38;5026543;28;20037;-73
2021/01/29 06:03:43;;;;;;;5.90;3.22;;;;;;;-2.20;57.91;99440.56;4999736;28;20041;-72
2021/01/29 06:06:37;;;;;;;10.55;3.78;;;;;;;-1.97;57.25;99442.88;5021292;28;20029;-72
2021/01/29 06:09:18;;;;;;;5.05;3.28;;;;;;;-2.19;58.01;99438.84;5028484;28;20423;-72
2021/01/29 06:12:02;;;;;;;7.32;4.20;;;;;;;-1.80;56.79;99429.84;5006830;28;20051;-73
2021/01/29 06:15:09;;;;;;;5.72;3.35;;;;;;;-2.24;58.08;99420.97;5021910;28;20030;-72
2021/01/29 06:17:50;;;;;;;5.20;2.95;;;;;;;-2.37;58.63;99410.00;5022172;28;20091;-72
2021/01/29 06:20:36;;;;;;;6.85;2.90;;;;;;;-2.22;58.16;99412.41;5030007;28;20040;-72
2021/01/29 06:23:38;;;;;;;9.82;3.13;;;;;;;-2.23;58.16;99408.13;5003791;28;20491;-72
2021/01/29 06:26:18;;;;;;;3.58;2.38;;;;;;;-2.29;58.20;99399.69;5033618;28;20029;-72
2021/01/29 06:28:49;;;;;;;5.45;2.95;;;;;;;-1.80;57.01;99402.53;5028613;28;20029;-72
2021/01/29 06:31:21;;;;;;;10.23;3.40;;;;;;;-1.72;56.88;99393.91;5025376;28;20064;-72
2021/01/29 06:34:14;;;;;;;14.30;3.30;;;;;;;-2.10;57.68;99395.22;5029941;28;20041;-72
2021/01/29 06:37:07;;;;;;;3.80;2.60;;;;;;;-1.77;56.94;99383.72;5029198;28;20041;-72
2021/01/29 06:40:21;;;;;;;3.38;2.22;;;;;;;-1.57;56.04;99383.44;5028835;28;20065;-72
2021/01/29 06:43:10;;;;;;;10.48;2.60;;;;;;;-1.93;57.41;99385.63;4957288;28;20034;-72
2021/01/29 06:45:53;;;;;;;4.15;1.60;;;;;;;-2.01;57.44;99388.25;4941782;28;20034;-72
2021/01/29 06:48:37;;;;;;;4.57;2.28;;;;;;;-1.81;56.49;99390.59;5003149;28;20037;-72
2021/01/29 06:51:21;;;;;;;9.35;3.10;;;;;;;-1.94;57.19;99383.91;5022743;28;20045;-72
2021/01/29 06:54:11;;;;;;;6.05;2.00;;;;;;;-2.30;57.82;99386.03;5024746;28;20120;-72
2021/01/29 06:56:49;;;;;;;7.68;2.35;;;;;;;-2.06;56.89;99384.09;5041753;28;20432;-72
2021/01/29 06:59:54;;;;;;;6.40;1.33;;;;;;;-2.62;57.98;99371.03;5026347;28;20025;-72
2021/01/29 07:02:37;;;;;;;6.72;2.42;;;;;;;-2.31;57.40;99374.13;5030140;28;20066;-72
2021/01/29 07:05:24;;;;;;;3.33;2.05;;;;;;;-2.55;57.31;99370.09;5007320;28;20041;-72
2021/01/29 07:08:15;;;;;;;3.78;2.00;;;;;;;-2.33;56.61;99369.91;5021621;28;20120;-72
2021/01/29 07:11:16;;;;;;;6.15;1.52;;;;;;;-2.86;57.98;99367.00;5025985;28;20033;-72
2021/01/29 07:14:05;;;;;;;3.28;1.75;;;;;;;-2.83;58.13;99372.06;5019089;28;20072;-73
2021/01/29 07:16:53;;;;;;;5.25;1.63;;;;;;;-2.71;56.95;99353.22;5007984;28;20038;-72
2021/01/29 07:19:34;;;;;;;3.28;2.08;;;;;;;-2.36;56.36;99365.63;5023212;28;20037;-72
2021/01/29 07:22:08;;;;;;;2.80;1.35;;;;;;;-2.53;56.84;99359.88;5021917;28;20092;-72
2021/01/29 07:24:49;;;;;;;5.65;2.05;;;;;;;-2.52;56.92;99349.59;5020842;28;20054;-72
2021/01/29 07:27:44;;;;;;;2.47;1.83;;;;;;;-2.57;56.71;99353.09;5018122;28;20037;-72
2021/01/29 07:30:27;;;;;;;3.15;1.85;;;;;;;-2.73;56.98;99353.22;5023488;28;20037;-72
2021/01/29 07:33:03;;;;;;;;;;;;;;;-2.63;56.93;99352.25;5017064;28;20195;-72
2021/01/29 07:36:02;;;;;;;2.30;0.88;;;;;;;-2.72;56.98;99318.28;5040649;28;19913;-72
2021/01/29 07:38:50;;;;;;;2.95;1.33;;;;;;;-2.31;55.56;99337.44;5027427;28;20034;-72
2021/01/29 07:41:42;;;;;;;2.10;1.02;;;;;;;-2.48;56.20;99324.84;5037924;28;20502;-72
2021/01/29 07:44:29;;;;;;;2.75;0.93;;;;;;;-2.78;56.89;99324.31;5024719;28;20483;-72
2021/01/29 07:47:08;;;;;;;2.80;1.20;;;;;;;-2.60;56.31;99314.72;5006791;28;20072;-72
2021/01/29 07:49:54;;;;;;;4.05;1.20;;;;;;;-2.05;54.80;99314.06;5019890;28;20025;-71
2021/01/29 07:52:28;;;;;;;4.20;1.42;;;;;;;-2.69;56.18;99306.31;5027063;28;20575;-71
2021/01/29 07:55:20;;;;;;;2.30;1.15;;;;;;;-2.19;55.43;99311.69;5025536;28;20037;-71
2021/01/29 07:58:08;;;;;;;4.45;0.60;;;;;;;-2.75;56.46;99301.25;5015118;28;20041;-72
2021/01/29 08:01:01;;;;;;;6.03;1.02;;;;;;;-2.69;56.59;99290.97;5046049;28;20033;-72
2021/01/29 08:03:39;;;;;;;1.45;0.70;;;;;;;-2.79;56.60;99294.47;5011337;28;20041;-71
2021/01/29 08:06:41;;;;;;;1.90;1.10;;;;;;;-2.65;56.29;99279.84;5015207;28;20486;-71
2021/01/29 08:09:50;;;;;;;1.83;0.68;;;;;;;-2.79;56.98;99281.69;5024339;28;20626;-71
2021/01/29 08:12:20;;;;;;;2.63;0.93;;;;;;;-2.90;57.45;99276.69;5026974;28;20052;-71
2021/01/29 08:15:18;;;;;;;2.15;0.85;;;;;;;-2.65;56.94;99281.53;5025464;28;20491;-71
2021/01/29 08:18:16;;;;;;;1.45;0.55;;;;;;;-2.73;57.14;99279.06;5020061;28;20038;-72
2021/01/29 08:20:42;;;;;;;2.25;0.85;;;;;;;-2.08;55.92;99276.56;5040887;28;20044;-71
2021/01/29 08:23:26;;;;;;;1.10;0.75;;;;;;;-2.79;56.69;99281.69;5007948;28;20093;-72
2021/01/29 08:26:30;;;;;;;2.03;0.85;;;;;;;-3.08;57.79;99266.66;5028756;28;20029;-71
2021/01/29 08:28:58;;;;;;;3.78;0.68;;;;;;;-2.10;55.96;99272.34;5033754;28;20635;-72
2021/01/29 08:31:42;;;;;;;3.20;0.80;;;;;;;-2.78;56.75;99262.06;5033894;28;20033;-71
2021/01/29 08:34:36;;;;;;;4.93;1.27;;;;;;;-2.16;55.82;99257.06;5037706;28;20057;-71
2021/01/29 08:37:46;;;;;;;2.30;0.70;;;;;;;-2.05;55.50;99260.31;5022904;28;20038;-71
2021/01/29 08:40:27;;;;;;;1.60;0.80;;;;;;;-2.42;56.11;99256.53;5039120;28;20029;-71
2021/01/29 08:42:57;;;;;;;1.77;0.88;;;;;;;-2.69;56.71;99256.88;5038015;28;20037;-71
2021/01/29 08:45:27;;;;;;;4.55;0.70;;;;;;;-2.44;56.41;99247.19;5012278;28;20045;-71
2021/01/29 08:48:02;;;;;;;2.10;0.90;;;;;;;-2.48;57.07;99253.19;5025060;28;20029;-71
2021/01/29 08:50:55;;;;;;;2.00;0.70;;;;;;;-2.34;56.42;99251.31;5025296;28;20689;-72
2021/01/29 08:53:50;;;;;;;5.95;0.70;;;;;;;-2.55;56.43;99247.31;5025131;28;20065;-71
2021/01/29 08:56:32;;;;;;;3.42;1.08;;;;;;;-2.81;57.14;99239.94;5029931;28;20029;-72
2021/01/29 08:59:07;;;;;;;4.97;0.90;;;;;;;-2.57;57.05;99243.09;5025705;28;20025;-71
2021/01/29 09:01:46;;;;;;;1.55;0.75;;;;;;;-3.20;58.37;99244.63;5026130;28;20037;-72
2021/01/29 09:04:30;;;;;;;2.10;1.35;;;;;;;-2.72;57.07;99232.16;5021409;28;20044;-71
2021/01/29 09:07:00;;;;;;;0.98;0.50;;;;;;;-2.30;56.62;99236.78;5026324;28;20034;-72
2021/01/29 09:09:30;;;;;;;2.45;1.17;;;;;;;-2.59;56.73;99235.41;5006176;28;20022;-72
2021/01/29 09:12:01;;;;;;;4.85;0.70;;;;;;;-2.19;56.41;99239.19;5038657;28;20038;-71
2021/01/29 09:14:37;;;;;;;4.40;0.73;;;;;;;-2.75;57.43;99227.09;5026221;28;20033;-71
2021/01/29 09:17:13;;;;;;;1.88;0.75;;;;;;;-2.86;57.91;99227.19;5027037;28;20064;-72
2021/01/29 09:19:42;;;;;;;1.60;0.68;;;;;;;-2.54;57.75;99230.25;5023183;28;20399;-71
2021/01/29 09:22:21;;;;;;;3.53;1.10;;;;;;;-2.21;56.52;99217.00;5022469;28;20045;-71
2021/01/29 09:25:00;;;;;;;1.33;0.85;;;;;;;-2.76;57.62;99232.22;5024416;28;20034;-71
2021/01/29 09:27:47;;;;;;;2.38;1.23;;;;;;;-2.93;58.59;99228.16;5019433;28;20041;-72
2021/01/29 09:30:22;;;;;;;1.55;0.63;;;;;;;-2.69;57.87;99223.63;5027399;28;20029;-72
2021/01/29 09:33:00;;;;;;;2.17;1.10;;;;;;;-2.82;58.00;99228.03;5044450;28;20033;-73
2021/01/29 09:35:41;;;;;;;4.60;0.90;;;;;;;-2.56;57.99;99211.50;5029257;28;20072;-73
2021/01/29 09:38:11;;;;;;;1.98;0.70;;;;;;;-2.89;58.61;99222.13;5021721;28;20099;-71
2021/01/29 09:40:48;;;;;;;4.57;1.05;;;;;;;-3.21;59.15;99224.19;5036328;28;20030;-71
2021/01/29 09:43:25;;;;;;;1.58;0.90;;;;;;;-2.19;57.05;99214.44;5023940;28;20044;-71
2021/01/29 09:45:55;;;;;;;3.50;1.13;;;;;;;-2.73;58.46;99225.38;5023833;28;20095;-71
2021/01/29 09:48:24;;;;;;;5.80;1.17;;;;;;;-2.54;57.81;99220.00;5023417;28;20037;-71
2021/01/29 09:51:04;;;;;;;1.42;0.80;;;;;;;-2.43;57.67;99216.44;5018806;28;20099;-71
2021/01/29 09:53:36;;;;;;;2.03;0.73;;;;;;;-2.89;58.74;99221.28;5018105;28;20033;-71
2021/01/29 09:56:08;;;;;;;2.03;1.60;;;;;;;-2.51;57.95;99237.91;5024093;28;20033;-73
2021/01/29 09:59:14;;;;;;;1.60;0.80;;;;;;;-2.43;57.83;99225.84;5023144;28;20048;-72
2021/01/29 10:01:44;;;;;;;3.22;1.38;;;;;;;-2.46;57.64;99225.88;5023902;28;20049;-71
2021/01/29 10:04:22;;;;;;;4.28;1.17;;;;;;;-2.07;57.08;99239.00;5024475;28;20113;-72
2021/01/29 10:06:58;;;;;;;4.70;1.83;;;;;;;-2.24;57.52;99241.81;5024968;28;20036;-72
2021/01/29 10:09:34;;;;;;;3.25;1.30;;;;;;;-1.89;56.74;99237.88;5030307;28;20057;-71
2021/01/29 10:12:16;;;;;;;2.72;0.60;;;;;;;-2.16;57.03;99239.13;5026131;28;20069;-72
2021/01/29 10:14:51;;;;;;;3.43;0.67;;;;;;;-1.88;56.56;99239.59;5040300;28;20091;-72
2021/01/29 10:17:43;;;;;;;5.65;1.20;;;;;;;-2.35;57.76;99239.38;5038426;28;20037;-71
2021/01/29 10:20:23;;;;;;;2.92;0.77;;;;;;;-1.80;56.51;99237.75;5024020;28;20044;-71
2021/01/29 10:23:22;;;;;;;3.45;1.30;;;;;;;-1.54;55.72;99246.75;5026999;28;20130;-72
2021/01/29 10:26:10;;;;;;;4.55;0.73;;;;;;;-1.85;55.97;99244.66;5019978;28;20746;-71
2021/01/29 10:28:53;;;;;;;4.38;1.00;;;;;;;-2.05;56.92;99239.81;5021184;28;20025;-71
2021/01/29 10:31:22;;;;;;;2.05;0.93;;;;;;;-2.52;57.55;99254.94;5023352;28;20061;-72
2021/01/29 10:33:57;;;;;;;3.88;2.08;;;;;;;-1.86;56.35;99254.06;5021562;28;20690;-73
2021/01/29 10:36:27;;;;;;;1.77;0.88;;;;;;;-1.89;56.55;99243.00;5003221;28;20656;-72
2021/01/29 10:38:59;;;;;;;8.27;1.48;;;;;;;-1.93;56.55;99251.59;5010005;28;20030;-73
2021/01/29 10:41:37;;;;;;;3.00;1.63;;;;;;;-1.97;56.89;99255.94;5019170;28;20600;-73
2021/01/29 10:44:10;;;;;;;3.40;1.27;;;;;;;-2.06;56.69;99256.06;5036635;28;20132;-72
2021/01/29 10:46:48;;;;;;;3.33;1.40;;;;;;;-2.15;57.24;99264.72;5023557;28;20029;-72
2021/01/29 10:49:37;;;;;;;4.25;1.23;;;;;;;-1.48;55.71;99265.44;5022202;28;20029;-71
2021/01/29 10:52:17;;;;;;;5.15;1.52;;;;;;;-1.69;56.18;99268.31;5025372;28;20036;-72
2021/01/29 10:54:43;;;;;;;2.35;1.30;;;;;;;-1.46;55.57;99262.84;5005372;28;20428;-72
2021/01/29 10:57:18;;;;;;;3.85;1.98;;;;;;;-1.28;55.39;99271.97;5004782;28;20033;-72
2021/01/29 11:00:01;;;;;;;5.18;1.48;;;;;;;-1.73;56.41;99276.91;5039545;28;20116;-73
2021/01/29 11:02:38;;;;;;;4.43;1.92;;;;;;;-1.81;56.71;99257.41;5023645;28;20041;-71
2021/01/29 11:05:14;;;;;;;3.25;1.85;;;;;;;-1.70;56.54;99270.03;5019587;28;20462;-71
2021/01/29 11:07:47;;;;;;;2.28;1.52;;;;;;;-1.70;56.66;99266.66;5021966;28;20044;-72
2021/01/29 11:10:16;;;;;;;4.65;2.22;;;;;;;-1.77;56.83;99268.44;5017769;28;20030;-72
2021/01/29 11:13:16;;;;;;;3.03;1.45;;;;;;;-2.27;58.50;99275.97;5031395;28;20052;-74
2021/01/29 11:15:50;;;;;;;2.97;1.67;;;;;;;-1.85;57.47;99265.97;5011142;28;20049;-73
2021/01/29 11:18:30;;;;;;;6.63;2.20;;;;;;;-1.80;57.36;99277.03;5017131;28;20026;-71
2021/01/29 11:21:10;;;;;;;5.47;1.83;;;;;;;-1.66;56.74;99263.16;5022389;28;20045;-72
2021/01/29 11:23:44;;;;;;;4.65;1.75;;;;;;;-1.43;56.30;99273.88;5019781;28;20098;-72
2021/01/29 11:26:16;;;;;;;2.63;1.52;;;;;;;-1.56;56.61;99276.66;5009857;28;20095;-72
2021/01/29 11:28:52;;;;;;;4.78;1.70;;;;;;;-1.51;56.70;99274.88;5008433;28;20033;-72
2021/01/29 11:31:41;;;;;;;3.90;1.75;;;;;;;-1.55;56.75;99276.66;5028192;28;20042;-71
2021/01/29 11:34:15;;;;;;;3.17;1.65;;;;;;;-1.52;56.72;99268.91;5040674;28;20030;-71
2021/01/29 11:36:55;;;;;;;3.60;1.70;;;;;;;-1.51;56.35;99275.75;5020485;28;20049;-72
2021/01/29 11:39:51;;;;;;;7.50;1.80;;;;;;;-1.40;56.32;99276.41;5019594;28;20121;-72
2021/01/29 11:42:52;;;;;;;4.30;1.77;;;;;;;-1.60;56.97;99271.59;5021599;28;20059;-72
2021/01/29 11:45:24;;;;;;;2.97;1.90;;;;;;;-1.51;56.34;99278.31;5020400;28;20041;-72
2021/01/29 11:48:22;;;;;;;4.57;2.15;;;;;;;-1.36;56.12;99272.06;5020792;28;20064;-72
2021/01/29 11:51:03;;;;;;;6.63;2.30;;;;;;;-1.19;55.67;99271.78;5018728;28;20466;-73
2021/01/29 11:53:45;;;;;;;2.45;1.15;;;;;;;-1.56;56.35;99277.50;5018728;28;20048;-73
2021/01/29 11:57:01;;;;;;;3.65;1.63;;;;;;;-1.83;57.47;99278.78;5023596;28;20037;-72
2021/01/29 11:59:35;;;;;;;4.00;2.08;;;;;;;-1.34;56.25;99278.00;5015455;28;20068;-72
2021/01/29 12:02:19;;;;;;;4.30;1.90;;;;;;;-1.44;56.40;99271.34;5043460;28;20057;-72
2021/01/29 12:05:03;;;;;;;4.90;1.80;;;;;;;-1.38;56.02;99274.66;5042640;28;20048;-72
2021/01/29 12:07:37;;;;;;;4.15;2.40;;;;;;;-0.98;55.13;99276.56;5048825;28;20064;-72
2021/01/29 12:10:13;;;;;;;4.03;2.15;;;;;;;-1.11;55.46;99267.34;5020889;28;20088;-71
2021/01/29 12:13:06;;;;;;;3.58;1.80;;;;;;;-1.09;55.52;99260.50;5019978;28;20030;-72
2021/01/29 12:15:59;;;;;;;3.15;1.63;;;;;;;-1.17;55.67;99275.19;5024955;28;20041;-71
2021/01/29 12:18:27;;;;;;;4.15;1.70;;;;;;;-1.10;55.21;99266.50;5021725;28;20040;-72
2021/01/29 12:21:06;;;;;;;1.98;1.45;;;;;;;-1.57;56.29;99259.63;5016364;28;20561;-72
2021/01/29 12:23:53;;;;;;;2.67;1.30;;;;;;;-1.47;56.02;99261.97;5021354;28;20034;-71
2021/01/29 12:26:37;;;;;;;4.13;1.98;;;;;;;-1.09;55.48;99260.50;5020219;28;20040;-71
2021/01/29 12:29:16;;;;;;;1.92;1.20;;;;;;;-1.06;55.14;99267.28;5013128;28;20132;-71
2021/01/29 12:31:53;;;;;;;4.25;1.70;;;;;;;-1.35;55.89;99260.97;5027051;28;20044;-72
2021/01/29 12:34:30;;;;;;;3.72;1.38;;;;;;;-1.47;56.23;99259.41;5020424;28;20029;-71
2021/01/29 12:37:04;;;;;;;6.88;1.73;;;;;;;-1.19;55.71;99251.28;5038460;28;20029;-72
2021/01/29 12:39:40;;;;;;;4.95;2.95;;;;;;;-1.47;56.01;99256.03;5028154;28;20065;-72
2021/01/29 12:42:09;;;;;;;3.92;2.17;;;;;;;-1.28;55.79;99256.56;5022246;28;20109;-70
2021/01/29 12:44:41;;;;;;;6.05;3.10;;;;;;;-1.48;56.15;99260.31;5015962;28;20729;-69
2021/01/29 12:47:28;;;;;;;9.82;5.15;;;;;;;-1.34;55.93;99256.66;5017679;28;20710;-70
2021/01/29 12:50:12;;;;;;;5.70;2.17;;;;;;;-1.11;55.40;99258.81;5018229;28;20029;-70